Time;durP1;ratioP1;P1;durP2;ratioP2;P2;SDS_P1;SDS_P2;PMS_P1;PMS_P2;Temp;Humidity;BMP_temperature;BMP_pressure;BME280_temperature;BME280_humidity;BME280_pressure;Samples;Min_cycle;Max_cycle;Signal;HPM_P1;HPM_P2
2023/11/02 00:01:07;;;;;;;72.80;63.92;;;11.00;99.90;;;;;;5052567;28;20165;-76
2023/11/02 00:03:34;;;;;;;74.97;67.05;;;11.00;99.90;;;;;;5052494;28;20177;-77
2023/11/02 00:06:29;;;;;;;77.03;68.95;;;11.00;99.90;;;;;;5052567;28;20471;-77
2023/11/02 00:09:04;;;;;;;73.43;65.65;;;11.00;99.90;;;;;;5039660;28;20189;-77
2023/11/02 00:11:53;;;;;;;76.72;68.95;;;11.10;99.90;;;;;;5052838;28;20526;-76
2023/11/02 00:14:19;;;;;;;72.25;64.20;;;11.20;99.90;;;;;;5054572;28;20601;-77
2023/11/02 00:16:47;;;;;;;68.63;58.80;;;11.30;99.90;;;;;;5056520;28;20170;-77
2023/11/02 00:19:28;;;;;;;75.63;66.10;;;11.30;99.90;;;;;;5056401;28;20253;-77
2023/11/02 00:21:54;;;;;;;66.38;51.00;;;11.30;99.90;;;;;;5056478;28;20148;-77
2023/11/02 00:24:20;;;;;;;73.47;62.00;;;11.30;99.90;;;;;;5056057;28;20181;-77
2023/11/02 00:26:46;;;;;;;71.40;57.10;;;11.30;99.90;;;;;;5056245;28;20260;-76
2023/11/02 00:29:11;;;;;;;67.23;53.50;;;11.30;99.90;;;;;;5056574;28;20585;-77
2023/11/02 00:31:37;;;;;;;68.00;56.93;;;11.40;99.90;;;;;;5056292;28;20176;-77
2023/11/02 00:34:03;;;;;;;66.70;55.20;;;11.40;99.90;;;;;;5055940;28;20193;-77
2023/11/02 00:36:32;;;;;;;64.65;49.67;;;11.40;99.90;;;;;;5056179;28;20165;-77
2023/11/02 00:38:58;;;;;;;66.93;58.65;;;11.50;99.90;;;;;;5053834;28;20308;-77
2023/11/02 00:41:24;;;;;;;69.73;62.23;;;11.50;99.90;;;;;;5055788;28;20654;-77
2023/11/02 00:43:49;;;;;;;67.13;53.53;;;11.60;99.90;;;;;;5055977;28;20195;-76
2023/11/02 00:46:15;;;;;;;66.27;57.33;;;11.50;99.90;;;;;;5055732;28;20764;-77
2023/11/02 00:48:41;;;;;;;63.83;49.17;;;11.50;99.90;;;;;;5055679;28;20198;-77
2023/11/02 00:51:12;;;;;;;66.83;57.93;;;11.50;99.90;;;;;;5055661;28;20200;-77
2023/11/02 00:53:44;;;;;;;63.63;49.92;;;11.50;99.90;;;;;;5055672;28;20189;-77
2023/11/02 00:56:11;;;;;;;64.43;51.22;;;11.50;99.90;;;;;;5055905;28;20237;-77
2023/11/02 00:58:44;;;;;;;66.90;57.58;;;11.60;99.90;;;;;;5055891;28;20220;-77
2023/11/02 01:01:14;;;;;;;70.65;51.83;;;11.50;99.90;;;;;;5055514;28;20161;-77
2023/11/02 01:03:46;;;;;;;68.10;56.67;;;11.50;99.90;;;;;;5056133;28;20643;-77
2023/11/02 01:06:25;;;;;;;66.82;57.85;;;11.50;99.90;;;;;;5055347;28;20150;-77
2023/11/02 01:08:57;;;;;;;64.03;51.47;;;11.60;99.90;;;;;;5055555;28;20292;-77
2023/11/02 01:11:27;;;;;;;64.40;46.92;;;11.60;99.90;;;;;;5055213;28;20180;-76
2023/11/02 01:13:56;;;;;;;62.50;46.80;;;11.60;99.90;;;;;;5055727;28;20189;-77
2023/11/02 01:16:21;;;;;;;65.38;54.75;;;11.60;99.90;;;;;;5055198;28;20172;-76
2023/11/02 01:18:47;;;;;;;65.97;57.37;;;11.60;99.90;;;;;;5053766;28;20662;-77
2023/11/02 01:21:15;;;;;;;65.23;51.17;;;11.60;99.90;;;;;;5055044;28;20218;-77
2023/11/02 01:23:41;;;;;;;65.20;50.45;;;11.50;99.90;;;;;;5054993;28;20188;-77
2023/11/02 01:26:57;;;;;;;63.83;46.83;;;11.60;99.90;;;;;;5053882;28;20681;-77
2023/11/02 01:29:23;;;;;;;63.78;48.28;;;11.60;99.90;;;;;;5055151;28;20161;-77
2023/11/02 01:31:49;;;;;;;61.22;42.20;;;11.60;99.90;;;;;;5055077;28;20161;-76
2023/11/02 01:34:21;;;;;;;67.50;51.60;;;11.60;99.90;;;;;;5054956;28;20197;-77
2023/11/02 01:36:47;;;;;;;63.85;46.00;;;11.60;99.90;;;;;;5054921;28;20646;-77
2023/11/02 01:39:13;;;;;;;65.93;46.67;;;11.60;99.90;;;;;;5054698;28;20598;-77
2023/11/02 01:42:10;;;;;;;62.43;47.73;;;11.70;99.90;;;;;;5053430;28;20168;-77
2023/11/02 01:45:05;;;;;;;65.47;53.67;;;11.60;99.90;;;;;;5048877;28;20225;-77
2023/11/02 01:47:56;;;;;;;63.40;47.53;;;11.70;99.90;;;;;;5054834;28;20149;-76
2023/11/02 01:50:43;;;;;;;64.40;45.83;;;11.60;99.90;;;;;;5043938;28;20177;-77
2023/11/02 01:53:21;;;;;;;65.53;47.22;;;11.60;99.90;;;;;;5054456;28;20212;-77
2023/11/02 01:56:25;;;;;;;63.33;47.40;;;11.60;99.90;;;;;;5054546;28;20146;-77
2023/11/02 01:59:02;;;;;;;62.97;47.65;;;11.60;99.90;;;;;;5036351;28;20193;-76
2023/11/02 02:01:40;;;;;;;63.35;48.75;;;11.70;99.90;;;;;;5054903;28;20549;-77
2023/11/02 02:04:32;;;;;;;62.63;48.20;;;11.60;99.90;;;;;;5036342;28;20660;-77
2023/11/02 02:07:09;;;;;;;64.70;49.85;;;11.60;99.90;;;;;;5030893;28;20188;-77
2023/11/02 02:10:05;;;;;;;64.90;52.55;;;11.60;99.90;;;;;;5054532;28;20610;-76
2023/11/02 02:12:59;;;;;;;63.47;46.90;;;11.60;99.90;;;;;;5036202;28;20522;-76
2023/11/02 02:15:32;;;;;;;62.55;46.88;;;11.60;99.90;;;;;;5054102;28;20145;-77
2023/11/02 02:18:00;;;;;;;65.53;47.53;;;11.70;99.90;;;;;;5054359;28;20153;-76
2023/11/02 02:20:32;;;;;;;63.38;49.38;;;11.60;99.90;;;;;;5053826;28;20184;-77
2023/11/02 02:23:01;;;;;;;66.78;53.75;;;11.60;99.90;;;;;;5051761;28;20281;-76
2023/11/02 02:25:45;;;;;;;71.97;62.03;;;11.70;99.90;;;;;;5054007;28;20183;-76
2023/11/02 02:28:48;;;;;;;70.80;48.10;;;11.60;99.90;;;;;;5053903;28;20207;-77
2023/11/02 02:31:19;;;;;;;63.90;44.95;;;11.70;99.90;;;;;;5054055;28;20504;-77
2023/11/02 02:34:17;;;;;;;63.83;50.92;;;11.70;99.90;;;;;;5053586;28;20193;-77
2023/11/02 02:37:01;;;;;;;63.40;47.22;;;11.70;99.90;;;;;;5053599;28;20181;-77
2023/11/02 02:39:37;;;;;;;64.72;46.40;;;11.70;99.90;;;;;;5053534;28;20717;-76
2023/11/02 02:42:04;;;;;;;67.05;50.53;;;11.70;99.90;;;;;;5053901;28;20185;-76
2023/11/02 02:44:31;;;;;;;69.22;50.20;;;11.70;99.90;;;;;;5053443;28;20216;-76
2023/11/02 02:47:02;;;;;;;65.82;50.65;;;11.70;99.90;;;;;;5053468;28;20177;-77
2023/11/02 02:49:37;;;;;;;67.30;47.75;;;11.70;99.90;;;;;;5035576;28;20267;-76
2023/11/02 02:52:07;;;;;;;64.97;49.42;;;11.80;99.90;;;;;;5035607;28;20161;-77
2023/11/02 02:54:37;;;;;;;65.95;51.97;;;11.80;99.90;;;;;;5053209;28;20188;-77
2023/11/02 02:57:07;;;;;;;64.10;50.72;;;11.70;99.90;;;;;;5053295;28;20169;-77
2023/11/02 02:59:39;;;;;;;65.43;49.38;;;11.80;99.90;;;;;;5035284;28;20343;-77
2023/11/02 03:02:07;;;;;;;64.32;47.58;;;11.80;99.90;;;;;;5053269;28;20228;-77
2023/11/02 03:04:35;;;;;;;65.80;53.25;;;11.80;99.90;;;;;;5053222;28;20185;-77
2023/11/02 03:07:02;;;;;;;64.75;53.58;;;11.80;99.90;;;;;;5053129;28;20161;-76
2023/11/02 03:09:33;;;;;;;64.13;52.15;;;11.80;99.90;;;;;;5053090;28;20196;-76
2023/11/02 03:12:04;;;;;;;63.95;44.47;;;11.80;99.90;;;;;;5053340;28;20686;-77
2023/11/02 03:14:34;;;;;;;67.88;48.20;;;11.90;99.90;;;;;;5053021;28;20673;-77
2023/11/02 03:17:39;;;;;;;62.03;43.55;;;11.80;99.90;;;;;;5053053;28;20554;-77
2023/11/02 03:20:08;;;;;;;62.10;43.65;;;11.80;99.90;;;;;;5053203;28;20188;-77
2023/11/02 03:22:34;;;;;;;63.15;50.95;;;11.80;99.90;;;;;;5051670;28;20165;-77
2023/11/02 03:25:22;;;;;;;64.28;44.50;;;11.90;99.90;;;;;;5052923;28;20211;-77
2023/11/02 03:28:10;;;;;;;62.67;47.25;;;11.90;99.90;;;;;;5051867;28;20196;-77
2023/11/02 03:30:49;;;;;;;61.30;43.08;;;11.90;99.90;;;;;;5051682;28;20526;-76
2023/11/02 03:33:31;;;;;;;58.72;45.53;;;11.90;99.90;;;;;;5052820;28;20195;-76
2023/11/02 03:36:16;;;;;;;62.38;47.55;;;11.80;99.90;;;;;;5052935;28;20153;-76
2023/11/02 03:38:48;;;;;;;59.47;42.40;;;11.80;99.90;;;;;;5052839;28;20188;-77
2023/11/02 03:41:26;;;;;;;60.90;45.50;;;11.80;99.90;;;;;;5053136;28;20622;-77
2023/11/02 03:44:02;;;;;;;60.92;43.88;;;11.90;99.90;;;;;;5052746;28;20192;-76
2023/11/02 03:46:49;;;;;;;62.05;49.53;;;11.90;99.90;;;;;;5053568;28;20516;-77
2023/11/02 03:49:29;;;;;;;60.58;41.97;;;11.90;99.90;;;;;;5053898;28;20255;-77
2023/11/02 03:52:41;;;;;;;62.00;45.45;;;11.80;99.90;;;;;;5057055;28;20362;-77
2023/11/02 03:55:44;;;;;;;59.90;38.95;;;11.80;99.90;;;;;;5056734;28;20162;-77
2023/11/02 03:58:29;;;;;;;56.95;39.55;;;11.80;99.90;;;;;;5056582;28;20173;-77
2023/11/02 04:01:23;;;;;;;63.17;42.65;;;11.90;99.90;;;;;;5056619;28;20154;-77
2023/11/02 04:03:51;;;;;;;56.97;36.53;;;11.80;99.90;;;;;;5056095;28;20220;-77
2023/11/02 04:06:26;;;;;;;61.72;47.17;;;11.90;99.90;;;;;;5038545;28;20592;-77
2023/11/02 04:08:55;;;;;;;55.63;37.40;;;11.80;99.90;;;;;;5057044;28;20658;-76
2023/11/02 04:11:31;;;;;;;64.53;43.10;;;11.80;99.90;;;;;;5056378;28;20215;-77
2023/11/02 04:14:05;;;;;;;62.03;47.10;;;11.80;99.90;;;;;;5056282;28;20177;-77
2023/11/02 04:16:31;;;;;;;61.30;41.95;;;11.80;99.90;;;;;;5054977;28;20272;-77
2023/11/02 04:18:57;;;;;;;60.90;44.70;;;11.70;99.90;;;;;;5056117;28;20281;-77
2023/11/02 04:21:23;;;;;;;62.50;45.38;;;11.70;99.90;;;;;;5056162;28;20161;-77
2023/11/02 04:23:49;;;;;;;66.20;45.90;;;11.70;99.90;;;;;;5056099;28;20662;-77
2023/11/02 04:26:14;;;;;;;60.10;41.47;;;11.70;99.90;;;;;;5055926;28;20187;-77
2023/11/02 04:28:40;;;;;;;62.80;51.07;;;11.70;99.90;;;;;;5056028;28;20252;-77
2023/11/02 04:31:06;;;;;;;70.97;58.60;;;11.70;99.90;;;;;;5054754;28;20212;-76
2023/11/02 04:33:32;;;;;;;60.17;40.67;;;11.70;99.90;;;;;;5055924;28;20185;-76
2023/11/02 04:35:58;;;;;;;59.87;42.67;;;11.70;99.90;;;;;;5056370;28;20919;-77
2023/11/02 04:38:24;;;;;;;64.30;41.55;;;11.70;99.90;;;;;;5055807;28;20173;-77
2023/11/02 04:40:52;;;;;;;56.37;33.53;;;11.70;99.90;;;;;;5055899;28;20162;-77
2023/11/02 04:43:18;;;;;;;60.75;44.03;;;11.70;99.90;;;;;;5055750;28;20185;-77
2023/11/02 04:45:44;;;;;;;57.67;38.93;;;11.70;99.90;;;;;;5055736;28;20218;-77
2023/11/02 04:48:09;;;;;;;58.67;40.70;;;11.70;99.90;;;;;;5055726;28;20158;-77
2023/11/02 04:50:35;;;;;;;64.70;49.90;;;11.70;99.90;;;;;;5055891;28;20165;-77
2023/11/02 04:53:01;;;;;;;60.73;45.70;;;11.60;99.90;;;;;;5055389;28;20192;-77
2023/11/02 04:55:26;;;;;;;75.50;60.77;;;11.60;99.90;;;;;;5055652;28;20162;-77
2023/11/02 04:57:52;;;;;;;66.10;52.67;;;11.50;99.90;;;;;;5055575;28;20162;-77
2023/11/02 05:00:18;;;;;;;65.00;51.10;;;11.50;99.90;;;;;;5054122;28;20189;-77
2023/11/02 05:02:43;;;;;;;63.17;47.10;;;11.50;99.90;;;;;;5055598;28;20177;-77
2023/11/02 05:05:09;;;;;;;67.50;53.80;;;11.50;99.90;;;;;;5055394;28;20482;-77
2023/11/02 05:07:35;;;;;;;63.17;50.33;;;11.50;99.90;;;;;;5055358;28;20189;-77
2023/11/02 05:10:01;;;;;;;61.37;48.37;;;11.60;99.90;;;;;;5055335;28;20214;-77
2023/11/02 05:12:26;;;;;;;60.67;40.77;;;11.50;99.90;;;;;;5055137;28;20535;-76
2023/11/02 05:14:52;;;;;;;63.40;39.07;;;11.50;99.90;;;;;;5055514;28;20406;-77
2023/11/02 05:17:18;;;;;;;64.07;57.03;;;11.60;99.90;;;;;;5055412;28;20180;-76
2023/11/02 05:19:43;;;;;;;67.03;58.83;;;11.50;99.90;;;;;;5055600;28;20254;-77
2023/11/02 05:22:09;;;;;;;58.43;37.67;;;11.60;99.90;;;;;;5055145;28;20157;-77
2023/11/02 05:24:35;;;;;;;56.60;45.63;;;11.60;99.90;;;;;;5053740;28;20220;-76
2023/11/02 05:27:01;;;;;;;61.00;48.60;;;11.60;99.90;;;;;;5055018;28;20435;-76
2023/11/02 05:29:26;;;;;;;101.10;92.00;;;11.50;99.90;;;;;;5055253;28;20165;-77
2023/11/02 05:31:52;;;;;;;106.33;94.37;;;11.50;99.90;;;;;;5054893;28;20179;-77
2023/11/02 05:34:17;;;;;;;59.40;41.10;;;11.50;99.90;;;;;;5054755;28;20531;-77
2023/11/02 05:36:43;;;;;;;60.63;44.43;;;11.50;99.90;;;;;;5054825;28;20221;-77
2023/11/02 05:39:09;;;;;;;61.17;43.43;;;11.50;99.90;;;;;;5054728;28;20193;-76
2023/11/02 05:41:34;;;;;;;63.03;44.70;;;11.50;99.90;;;;;;5054807;28;20161;-76
2023/11/02 05:44:00;;;;;;;59.33;44.63;;;11.60;99.90;;;;;;5054749;28;20215;-76
2023/11/02 05:46:26;;;;;;;61.30;41.67;;;11.60;99.90;;;;;;5054909;28;20165;-76
2023/11/02 05:48:51;;;;;;;56.57;35.57;;;11.70;99.90;;;;;;5054530;28;20165;-77
2023/11/02 05:51:17;;;;;;;58.80;38.33;;;11.70;99.90;;;;;;5054817;28;20174;-77
2023/11/02 05:53:43;;;;;;;57.30;39.00;;;11.70;99.90;;;;;;5054686;28;20280;-77
2023/11/02 05:56:09;;;;;;;66.80;47.90;;;11.70;99.90;;;;;;5054519;28;20689;-77
2023/11/02 05:58:35;;;;;;;61.80;44.90;;;11.70;99.90;;;;;;5036368;28;20175;-76
2023/11/02 06:01:02;;;;;;;61.05;39.38;;;11.70;99.90;;;;;;5054562;28;20200;-76
2023/11/02 06:03:29;;;;;;;57.37;40.37;;;11.80;99.90;;;;;;5054509;28;20185;-77
2023/11/02 06:05:54;;;;;;;63.35;38.25;;;11.80;99.90;;;;;;5054247;28;20630;-76
2023/11/02 06:08:20;;;;;;;57.40;35.53;;;11.80;99.90;;;;;;5054225;28;20169;-77
2023/11/02 06:10:46;;;;;;;58.23;35.87;;;11.80;99.90;;;;;;5054667;28;20231;-77
2023/11/02 06:13:12;;;;;;;57.27;34.80;;;11.80;99.90;;;;;;5053895;28;20188;-76
2023/11/02 06:15:37;;;;;;;60.08;39.85;;;11.80;99.90;;;;;;5053872;28;20185;-76
2023/11/02 06:18:04;;;;;;;60.83;40.67;;;11.80;99.90;;;;;;5053926;28;20222;-77
2023/11/02 06:20:31;;;;;;;65.95;51.63;;;11.70;99.90;;;;;;5053773;28;20694;-76
2023/11/02 06:22:56;;;;;;;60.40;42.45;;;11.80;99.90;;;;;;5053755;28;20217;-77
2023/11/02 06:25:25;;;;;;;66.50;46.63;;;11.80;99.90;;;;;;5053862;28;20195;-77
2023/11/02 06:27:50;;;;;;;62.72;43.10;;;11.80;99.90;;;;;;5053686;28;20177;-77
2023/11/02 06:30:16;;;;;;;61.13;45.67;;;11.80;99.90;;;;;;5054003;28;20184;-76
2023/11/02 06:32:42;;;;;;;62.80;45.27;;;11.90;99.90;;;;;;5053674;28;20755;-76
2023/11/02 06:35:08;;;;;;;63.47;50.72;;;11.90;99.90;;;;;;5035814;28;20208;-77
2023/11/02 06:37:56;;;;;;;60.93;42.80;;;11.90;99.90;;;;;;5053985;28;20169;-77
2023/11/02 06:40:23;;;;;;;61.33;48.70;;;11.90;99.90;;;;;;5052316;28;20439;-76
2023/11/02 06:42:49;;;;;;;62.83;47.42;;;11.90;99.90;;;;;;5053412;28;20260;-77
2023/11/02 06:45:16;;;;;;;62.28;43.50;;;11.90;99.90;;;;;;5051249;28;20702;-77
2023/11/02 06:47:42;;;;;;;65.00;45.95;;;11.90;99.90;;;;;;5053455;28;20621;-76
2023/11/02 06:50:08;;;;;;;63.47;44.57;;;11.90;99.90;;;;;;5051296;28;20173;-77
2023/11/02 06:52:34;;;;;;;61.75;43.83;;;11.90;99.90;;;;;;5052257;28;20569;-77
2023/11/02 06:54:59;;;;;;;61.43;45.90;;;11.90;99.90;;;;;;5052784;28;20165;-77
2023/11/02 06:57:25;;;;;;;63.50;52.03;;;12.00;99.90;;;;;;5052827;28;20597;-76
2023/11/02 06:59:51;;;;;;;62.27;48.43;;;12.00;99.90;;;;;;5052686;28;20287;-76
2023/11/02 07:02:17;;;;;;;64.23;49.70;;;12.00;99.90;;;;;;5157263;22;20302;-76
2023/11/02 07:04:43;;;;;;;68.72;58.33;;;12.00;99.90;;;;;;5072864;28;20207;-76
2023/11/02 07:07:08;;;;;;;64.77;51.23;;;12.00;99.90;;;;;;5055189;28;20165;-76
2023/11/02 07:09:34;;;;;;;63.33;49.10;;;12.00;99.90;;;;;;5073107;28;20169;-76
2023/11/02 07:12:00;;;;;;;72.03;64.27;;;12.10;99.90;;;;;;5073390;28;20507;-76
2023/11/02 07:14:26;;;;;;;76.10;67.67;;;12.00;99.90;;;;;;5073036;28;20599;-76
2023/11/02 07:16:51;;;;;;;85.17;77.03;;;11.90;99.90;;;;;;5073060;28;20210;-76
2023/11/02 07:19:17;;;;;;;75.57;67.70;;;11.80;99.90;;;;;;5073218;28;20193;-76
2023/11/02 07:21:42;;;;;;;78.00;69.93;;;11.80;99.90;;;;;;5073064;28;20549;-76
2023/11/02 07:24:08;;;;;;;79.33;71.10;;;11.70;99.90;;;;;;5054133;28;20184;-75
2023/11/02 07:26:38;;;;;;;86.37;78.10;;;11.60;99.90;;;;;;5072922;28;20160;-76
2023/11/02 07:29:03;;;;;;;101.60;92.55;;;11.50;99.90;;;;;;5072935;28;20210;-76
2023/11/02 07:31:29;;;;;;;92.87;84.17;;;11.50;99.90;;;;;;5073165;28;20169;-76
2023/11/02 07:33:55;;;;;;;100.10;91.17;;;11.50;99.90;;;;;;5072912;28;20184;-75
2023/11/02 07:36:20;;;;;;;100.67;91.60;;;11.50;99.90;;;;;;5072836;28;20172;-76
2023/11/02 07:38:46;;;;;;;111.17;101.90;;;11.40;99.90;;;;;;5072757;28;20192;-76
2023/11/02 07:41:13;;;;;;;121.07;111.07;;;11.50;99.90;;;;;;5072839;28;20161;-76
2023/11/02 07:43:38;;;;;;;112.97;103.40;;;11.50;99.90;;;;;;5072818;28;20176;-76
2023/11/02 07:46:04;;;;;;;115.40;105.90;;;11.60;99.90;;;;;;5073059;28;20282;-76
2023/11/02 07:48:30;;;;;;;110.25;100.97;;;11.60;99.90;;;;;;5054778;28;20164;-76
2023/11/02 07:50:56;;;;;;;130.10;119.53;;;11.60;99.90;;;;;;5072799;28;20207;-76
2023/11/02 07:53:22;;;;;;;116.23;106.73;;;11.60;99.90;;;;;;5072632;28;20192;-76
2023/11/02 07:55:48;;;;;;;141.00;129.70;;;11.60;99.90;;;;;;5072620;28;20172;-76
2023/11/02 07:58:14;;;;;;;112.17;102.47;;;11.60;99.90;;;;;;5054955;28;20214;-76
2023/11/02 08:00:40;;;;;;;111.90;102.40;;;11.70;99.90;;;;;;5072939;28;20466;-76
2023/11/02 08:03:05;;;;;;;142.57;131.47;;;11.70;99.90;;;;;;5072554;28;20430;-76
2023/11/02 08:05:31;;;;;;;117.13;106.47;;;11.70;99.90;;;;;;5072558;28;20173;-76
2023/11/02 08:07:57;;;;;;;95.80;87.03;;;11.80;99.90;;;;;;5072814;28;20680;-76
2023/11/02 08:10:23;;;;;;;96.63;87.70;;;11.80;99.90;;;;;;5072807;28;20248;-76
2023/11/02 08:12:49;;;;;;;117.47;107.47;;;11.80;99.90;;;;;;5072460;28;20220;-76
2023/11/02 08:15:14;;;;;;;125.33;115.07;;;11.80;99.90;;;;;;5072765;28;20161;-76
2023/11/02 08:17:42;;;;;;;100.17;90.70;;;11.90;99.90;;;;;;5073023;28;20203;-76
2023/11/02 08:20:10;;;;;;;86.15;77.60;;;12.00;99.90;;;;;;5072354;28;20210;-76
2023/11/02 08:22:35;;;;;;;87.03;78.68;;;12.00;99.90;;;;;;5072296;28;20160;-76
2023/11/02 08:25:01;;;;;;;74.23;66.23;;;12.00;99.90;;;;;;5072612;28;20165;-76
2023/11/02 08:27:32;;;;;;;99.17;89.50;;;12.00;99.90;;;;;;5072370;28;20161;-76
2023/11/02 08:29:58;;;;;;;83.10;74.82;;;12.10;99.90;;;;;;5072429;28;20245;-76
2023/11/02 08:32:23;;;;;;;77.30;69.23;;;12.10;99.90;;;;;;5072512;28;20263;-76
2023/11/02 08:34:49;;;;;;;83.87;75.30;;;12.20;99.90;;;;;;5073623;28;20555;-76
2023/11/02 08:37:15;;;;;;;96.07;86.90;;;12.20;99.90;;;;;;5075945;28;20172;-76
2023/11/02 08:39:40;;;;;;;88.10;79.60;;;12.20;99.90;;;;;;5075784;28;20187;-76
2023/11/02 08:42:06;;;;;;;79.93;71.83;;;12.20;99.90;;;;;;5076146;28;20546;-76
2023/11/02 08:44:32;;;;;;;83.93;75.32;;;12.30;99.90;;;;;;5075738;28;20468;-76
2023/11/02 08:46:58;;;;;;;90.13;81.67;;;12.40;99.90;;;;;;5075897;28;20156;-76
2023/11/02 08:49:23;;;;;;;88.20;79.87;;;12.40;99.90;;;;;;5075702;28;20660;-76
2023/11/02 08:51:49;;;;;;;93.27;84.27;;;12.50;99.90;;;;;;5075653;28;20271;-76
2023/11/02 08:54:15;;;;;;;91.73;83.03;;;12.50;99.90;;;;;;5075528;28;20185;-76
2023/11/02 08:56:42;;;;;;;84.27;75.97;;;12.60;99.90;;;;;;5057571;28;20173;-76
2023/11/02 08:59:08;;;;;;;79.35;71.18;;;12.60;99.90;;;;;;5057396;28;20245;-76
2023/11/02 09:01:34;;;;;;;96.10;87.35;;;12.70;99.90;;;;;;5057367;28;20212;-76
2023/11/02 09:04:00;;;;;;;80.83;72.53;;;12.80;99.90;;;;;;5057436;28;20223;-76
2023/11/02 09:06:26;;;;;;;78.45;69.85;;;12.90;99.90;;;;;;5075898;28;20187;-76
2023/11/02 09:08:56;;;;;;;91.50;82.67;;;13.00;99.90;;;;;;5075355;28;20165;-76
2023/11/02 09:11:22;;;;;;;97.38;88.57;;;13.10;99.90;;;;;;5075503;28;20478;-76
2023/11/02 09:13:48;;;;;;;98.97;90.30;;;13.20;99.90;;;;;;5075210;28;20181;-76
2023/11/02 09:16:14;;;;;;;100.87;91.90;;;13.30;99.90;;;;;;5075167;28;20169;-76
2023/11/02 09:18:40;;;;;;;99.53;90.57;;;13.30;99.90;;;;;;5075340;28;20444;-76
2023/11/02 09:21:06;;;;;;;93.33;84.73;;;13.40;99.90;;;;;;5075182;28;20160;-76
2023/11/02 09:23:34;;;;;;;87.82;79.30;;;13.50;99.90;;;;;;5075283;28;20238;-76
2023/11/02 09:26:05;;;;;;;112.53;103.17;;;13.50;99.90;;;;;;5075004;28;20168;-76
2023/11/02 09:28:31;;;;;;;98.35;89.38;;;13.60;99.90;;;;;;5074960;28;20399;-76
2023/11/02 09:30:57;;;;;;;94.77;85.80;;;13.60;99.90;;;;;;5056920;28;20602;-76
2023/11/02 09:33:25;;;;;;;87.03;78.80;;;13.60;99.90;;;;;;5074812;28;21046;-76
2023/11/02 09:35:51;;;;;;;86.63;78.40;;;13.70;99.90;;;;;;5074823;28;20247;-76
2023/11/02 09:38:17;;;;;;;85.30;76.90;;;13.70;99.90;;;;;;5074759;28;20474;-76
2023/11/02 09:40:46;;;;;;;80.67;72.77;;;13.70;99.90;;;;;;5056771;28;20200;-76
2023/11/02 09:43:12;;;;;;;81.97;73.97;;;13.80;99.90;;;;;;5056676;28;20962;-76
2023/11/02 09:45:38;;;;;;;71.40;63.83;;;13.80;99.90;;;;;;5074496;28;20399;-76
2023/11/02 09:48:04;;;;;;;74.17;66.57;;;13.90;99.90;;;;;;5074266;28;20474;-76
2023/11/02 09:50:30;;;;;;;68.93;61.55;;;13.90;99.90;;;;;;5056621;28;20176;-76
2023/11/02 09:52:56;;;;;;;64.00;56.10;;;13.90;99.90;;;;;;5074411;28;20191;-76
2023/11/02 09:55:23;;;;;;;79.83;71.93;;;13.90;99.90;;;;;;5074685;28;20206;-76
2023/11/02 09:57:50;;;;;;;89.43;81.18;;;14.00;99.90;;;;;;5074401;28;20457;-76
2023/11/02 10:00:19;;;;;;;68.87;60.70;;;14.10;99.90;;;;;;5074141;28;20693;-76
2023/11/02 10:02:49;;;;;;;59.00;39.20;;;14.10;99.90;;;;;;5074153;28;20483;-76
2023/11/02 10:05:17;;;;;;;57.50;35.90;;;14.10;99.90;;;;;;5074298;28;20409;-76
2023/11/02 10:07:44;;;;;;;57.33;30.57;;;14.20;99.90;;;;;;5074227;28;20529;-76
2023/11/02 10:10:13;;;;;;;55.40;34.35;;;14.30;99.90;;;;;;5056175;28;20494;-76
2023/11/02 10:12:40;;;;;;;51.50;23.70;;;14.30;99.90;;;;;;5056858;28;20283;-76
2023/11/02 10:15:07;;;;;;;53.40;29.27;;;14.40;99.90;;;;;;5074275;28;20442;-76
2023/11/02 10:17:39;;;;;;;55.20;29.60;;;14.40;99.90;;;;;;5056089;28;20768;-78
2023/11/02 10:20:17;;;;;;;52.77;27.43;;;14.50;93.80;;;;;;5073853;28;20456;-76
2023/11/02 10:22:45;;;;;;;53.10;29.60;;;14.50;58.10;;;;;;5055938;28;20426;-76
2023/11/02 10:25:14;;;;;;;53.47;27.70;;;14.60;34.50;;;;;;5055927;28;20410;-76
2023/11/02 10:27:43;;;;;;;52.20;29.00;;;14.60;17.40;;;;;;5073801;28;20399;-76
2023/11/02 10:30:10;;;;;;;53.30;29.67;;;14.50;10.40;;;;;;5073789;28;20407;-76
2023/11/02 10:32:37;;;;;;;50.70;27.50;;;14.50;10.90;;;;;;5055614;28;20450;-76
2023/11/02 10:35:03;;;;;;;51.30;27.30;;;14.50;1.00;;;;;;5073694;28;20421;-76
2023/11/02 10:37:33;;;;;;;52.77;28.93;;;14.50;2.60;;;;;;5073874;28;20411;-76
2023/11/02 10:40:00;;;;;;;54.30;27.00;;;14.50;1.00;;;;;;5073686;28;20441;-76
2023/11/02 10:42:27;;;;;;;50.37;26.30;;;14.60;4.80;;;;;;5073498;28;20402;-76
2023/11/02 10:44:56;;;;;;;45.97;15.67;;;14.60;1.00;;;;;;5073543;28;20403;-76
2023/11/02 10:47:29;;;;;;;52.60;17.03;;;14.70;1.00;;;;;;5073932;28;20486;-75
2023/11/02 10:49:58;;;;;;;47.37;17.87;;;14.70;1.00;;;;;;5073428;28;20511;-76
2023/11/02 10:52:49;;;;;;;47.87;19.67;;;14.80;1.00;;;;;;5073279;28;20410;-75
2023/11/02 10:55:53;;;;;;;48.47;13.70;;;14.80;1.00;;;;;;5073712;28;20857;-76
2023/11/02 10:58:20;;;;;;;47.13;15.07;;;14.80;1.00;;;;;;5055961;28;20418;-76
2023/11/02 11:00:50;;;;;;;44.47;13.77;;;14.80;1.00;;;;;;5073142;28;20450;-76
2023/11/02 11:03:16;;;;;;;48.03;12.87;;;14.90;1.00;;;;;;5073376;28;20441;-76
2023/11/02 11:05:43;;;;;;;44.50;14.13;;;14.80;1.00;;;;;;5073369;28;20457;-76
2023/11/02 11:08:10;;;;;;;48.10;13.17;;;14.80;1.00;;;;;;5055225;28;20818;-76
2023/11/02 11:10:38;;;;;;;54.33;36.63;;;14.80;1.00;;;;;;5073364;28;20877;-76
2023/11/02 11:13:09;;;;;;;46.40;12.57;;;14.80;1.00;;;;;;5073198;28;20419;-76
2023/11/02 11:15:36;;;;;;;39.37;8.77;;;14.70;1.00;;;;;;5073472;28;20393;-76
2023/11/02 11:18:03;;;;;;;42.77;10.50;;;14.70;1.00;;;;;;5055046;28;20978;-76
2023/11/02 11:20:29;;;;;;;43.47;10.57;;;14.70;1.00;;;;;;5073024;28;20446;-76
2023/11/02 11:22:55;;;;;;;43.37;10.43;;;14.70;1.00;;;;;;5072964;28;20496;-76
2023/11/02 11:25:21;;;;;;;42.97;10.57;;;14.80;1.00;;;;;;5073013;28;20398;-76
2023/11/02 11:27:47;;;;;;;42.10;8.97;;;14.90;1.00;;;;;;5072974;28;20767;-76
2023/11/02 11:30:22;;;;;;;43.13;8.50;;;15.00;1.00;;;;;;5054994;28;20176;-76
2023/11/02 11:32:48;;;;;;;43.53;10.67;;;15.20;1.00;;;;;;5072884;28;20852;-76
2023/11/02 11:35:17;;;;;;;39.30;5.93;;;15.20;1.00;;;;;;5072908;28;20403;-76
2023/11/02 11:37:52;;;;;;;44.13;5.63;;;15.30;1.00;;;;;;5072899;28;20513;-76
2023/11/02 11:40:20;;;;;;;38.67;8.10;;;15.30;1.00;;;;;;5073110;28;20514;-75
2023/11/02 11:42:52;;;;;;;37.70;3.83;;;15.30;1.00;;;;;;5073000;28;20799;-76
2023/11/02 11:45:28;;;;;;;35.50;4.20;;;15.30;1.00;;;;;;5073067;28;20399;-76
2023/11/02 11:47:57;;;;;;;39.80;4.40;;;15.30;1.00;;;;;;5072727;28;20968;-76
2023/11/02 11:50:33;;;;;;;35.80;5.10;;;15.20;1.00;;;;;;5072952;28;20398;-76
2023/11/02 11:53:18;;;;;;;34.77;3.90;;;15.10;1.00;;;;;;5080294;22;20478;-76
2023/11/02 11:55:49;;;;;;;40.50;7.10;;;15.20;1.00;;;;;;5072991;28;20445;-76
2023/11/02 11:58:16;;;;;;;35.40;3.60;;;15.20;1.00;;;;;;5054725;28;20421;-76
2023/11/02 12:01:02;;;;;;;57.43;23.40;;;15.30;1.00;;;;;;5072624;28;20486;-76
2023/11/02 12:06:50;;;;;;;33.80;3.27;;;15.30;1.00;;;;;;5072622;28;20910;-76
2023/11/02 12:09:25;;;;;;;36.93;3.97;;;15.30;1.00;;;;;;5073125;28;20407;-76
2023/11/02 12:11:51;;;;;;;37.53;3.90;;;15.30;1.00;;;;;;5076739;28;20642;-76
2023/11/02 12:14:20;;;;;;;34.30;4.07;;;15.20;1.00;;;;;;5076321;28;20518;-76
2023/11/02 12:16:51;;;;;;;34.33;4.27;;;15.10;1.00;;;;;;5076545;28;20177;-76
2023/11/02 12:19:16;;;;;;;33.33;4.17;;;15.20;1.00;;;;;;5059092;28;20804;-76
2023/11/02 12:21:42;;;;;;;33.43;7.73;;;15.30;1.00;;;;;;5059354;28;20406;-76
2023/11/02 12:24:10;;;;;;;33.13;6.07;;;15.20;1.00;;;;;;5058075;28;20208;-76
2023/11/02 12:26:42;;;;;;;38.00;3.77;;;15.10;1.00;;;;;;5076339;28;20173;-76
2023/11/02 12:29:09;;;;;;;32.63;2.97;;;15.00;1.00;;;;;;5076331;28;20734;-75
2023/11/02 12:31:36;;;;;;;32.07;3.30;;;14.90;1.00;;;;;;5075985;28;20416;-76
2023/11/02 12:34:08;;;;;;;32.00;6.67;;;15.00;1.00;;;;;;5076148;28;20419;-76
2023/11/02 12:36:41;;;;;;;29.70;3.27;;;15.10;1.00;;;;;;5058015;28;20395;-76
2023/11/02 12:39:11;;;;;;;29.90;2.80;;;15.10;1.00;;;;;;5076113;28;20422;-76
2023/11/02 12:41:50;;;;;;;40.60;12.80;;;15.00;1.00;;;;;;5058624;28;20960;-76
2023/11/02 12:44:19;;;;;;;31.57;2.87;;;15.00;1.00;;;;;;5057772;28;20796;-76
2023/11/02 12:46:48;;;;;;;32.60;4.20;;;15.00;1.00;;;;;;5076023;28;20452;-76